Trumann, Arkansas
Current Conditions -  °F | °C
As of 7:53 AM on Thursday 29 Jan 2015 (Local Time) from KJBR Reporting Station
Clear Clear  
Wind Chill: 50°   Ceiling: Unl
Heat Index: 50°   Visibility: 10mi
Dew Point: 44°   Wind: 9mph
Humidity: 80%   Direction: 240°WSW
Pressure: 30.02"   Gusts: NA
Location:  35.66°N, 90.51°W
Report Text: KJBR 291353Z AUTO 24008KT 10SM CLR 10/07 A3002 RMK AO2 SLP166 T01000067
Loading
Personal Weather Stations






























Interactive Weather Map New forecast layout! Learn more

10-Day Weather Forecast

Advertisements
Track Severe Weather on mobile